Latest Weather Observations for Yulara

IDD60801

Issued at 6:31 am CST Sunday 22 October 2017 (issued every 30 minutes, with the page automatically refreshed every 10 minutes)

About weather observations | Map of weather stations | Latest weather observations for NT | Other Formats
Station Details ID: 015635 Name: YULARA AIRPORT Lat: -25.19 Lon: 130.97 Height: 492.0 m
Data from the previous 72 hours. | See also: Recent months at Yulara
Date/Time
CST
Temp
°C
App
Temp
°C
Dew
Point
°C
Rel
Hum
%
Delta-T
°C
Wind Press
QNH
hPa
Press
MSL
hPa
Rain since
9am
mm
Dir  Spd
km/h
Gust
km/h
Spd
kts
Gust
kts
22/06:30am 13.6 9.4 1.9 45 5.2 SE 13 17 7 9 1020.9 1018.4 0.0
22/06:00am 13.2 9.4 1.8 46 5.1 SE 11 15 6 8 1020.7 1018.2 0.0
22/05:30am 13.4 9.6 1.7 45 5.2 SSE 11 15 6 8 1020.6 1018.1 0.0
22/05:00am 13.8 9.3 2.1 45 5.3 SE 15 19 8 10 1020.3 1017.8 0.0
22/04:30am 14.0 9.5 2.0 44 5.4 SE 15 19 8 10 1020.0 1017.5 0.0
22/04:00am 14.2 10.0 1.8 43 5.6 SE 13 17 7 9 1019.8 1017.3 0.0
22/03:30am 14.1 10.0 2.0 44 5.4 SE 13 17 7 9 1019.7 1017.2 0.0
22/03:00am 14.0 10.3 2.3 45 5.3 SE 11 15 6 8 1019.6 1017.1 0.0
22/02:30am 14.6 10.4 1.8 42 5.7 SE 13 15 7 8 1019.8 1017.3 0.0
22/02:00am 14.8 10.7 2.0 42 5.8 SE 13 15 7 8 1020.1 1017.6 0.0
22/01:30am 15.7 11.5 1.8 39 6.3 SE 13 15 7 8 1020.2 1017.7 0.0
22/01:00am 16.8 12.9 1.3 35 7.0 ESE 11 15 6 8 1020.4 1017.9 0.0
22/12:30am 17.5 13.3 1.5 34 7.3 SE 13 19 7 10 1020.8 1018.3 0.0
22/12:00am 17.7 13.0 1.2 33 7.5 SE 15 19 8 10 1021.3 1018.8 0.0
 
Date/Time
CST
Temp
°C
App
Temp
°C
Dew
Point
°C
Rel
Hum
%
Delta-T
°C
Wind Press
QNH
hPa
Press
MSL
hPa
Rain since
9am
mm
Dir  Spd
km/h
Gust
km/h
Spd
kts
Gust
kts
21/11:30pm 18.2 13.6 1.3 32 7.7 SE 15 17 8 9 1021.5 1019.0 0.0
21/11:00pm 19.1 14.4 1.1 30 8.3 SE 15 17 8 9 1021.6 1019.1 0.0
21/10:30pm 19.8 15.1 0.8 28 8.7 SE 15 17 8 9 1021.6 1019.1 0.0
21/10:00pm 20.8 16.1 0.6 26 9.3 SE 15 19 8 10 1021.5 1019.0 0.0
21/09:30pm 21.1 16.8 0.9 26 9.4 SE 13 15 7 8 1021.4 1018.9 0.0
21/09:00pm 21.9 17.5 0.4 24 9.9 SE 13 15 7 8 1021.1 1018.5 0.0
21/08:30pm 23.4 19.8 0.5 22 10.7 ESE 9 13 5 7 1020.9 1018.4 0.0
21/08:00pm 25.2 21.4 -0.8 18 12.1 E 9 11 5 6 1020.5 1018.0 0.0
21/07:30pm 26.2 22.0 -0.8 17 12.6 E 11 13 6 7 1020.2 1017.7 0.0
21/07:00pm 27.5 22.7 -2.3 14 13.7 E 13 17 7 9 1020.0 1017.5 0.0
21/06:30pm 29.0 23.5 -2.2 13 14.5 ESE 17 24 9 13 1019.9 1017.4 0.0
21/06:00pm 29.9 24.2 -3.7 11 15.4 SE 17 26 9 14 1019.9 1017.4 0.0
21/05:30pm 30.2 24.8 -4.8 10 15.7 ESE 15 22 8 12 1019.9 1017.4 0.0
21/05:00pm 30.0 23.6 -4.9 10 15.7 ESE 20 32 11 17 1019.9 1017.4 0.0
21/04:30pm 30.4 24.2 -4.6 10 15.8 SE 19 32 10 17 1020.0 1017.5 0.0
21/04:00pm 30.0 24.2 -4.9 10 15.7 SE 17 28 9 15 1020.1 1017.6 0.0
21/03:30pm 30.1 25.8 -1.3 13 15.0 ESE 11 24 6 13 1020.4 1017.9 0.0
21/03:00pm 29.7 24.4 -3.9 11 15.3 SE 15 24 8 13 1020.8 1018.3 0.0
21/02:30pm 29.3 24.1 -3.0 12 14.9 SE 15 28 8 15 1021.2 1018.7 0.0
21/02:00pm 29.3 23.8 -1.9 13 14.7 ESE 17 26 9 14 1021.6 1019.1 0.0
21/01:30pm 28.3 22.9 -1.7 14 14.0 ESE 17 28 9 15 1022.0 1019.5 0.0
21/01:00pm 27.8 22.8 1.3 18 13.1 E 17 32 9 17 1022.6 1020.1 0.0
21/12:30pm 28.5 23.5 1.1 17 13.5 E 17 32 9 17 1023.3 1020.8 0.0
21/12:00pm 26.7 20.7 1.2 19 12.4 E 22 33 12 18 1023.8 1021.3 0.0
21/11:30am 26.1 20.6 2.1 21 11.8 E 20 30 11 16 1024.2 1021.7 0.0
21/11:00am 25.1 19.2 1.9 22 11.3 E 22 30 12 16 1024.4 1021.9 0.0
21/10:30am 24.7 18.9 2.2 23 11.0 E 22 30 12 16 1024.8 1022.4 0.0
21/10:00am 23.5 16.9 1.8 24 10.5 ESE 26 33 14 18 1025.1 1022.7 0.0
21/09:30am 22.8 15.8 1.8 25 10.0 ESE 28 39 15 21 1025.2 1022.8 0.0
21/09:00am 21.6 13.7 1.3 26 9.5 E 32 43 17 23 1025.3 1022.9 0.0
21/08:30am 21.1 13.3 1.4 27 9.2 ESE 32 43 17 23 1025.2 1022.8 0.0
21/08:00am 20.3 12.9 1.7 29 8.7 E 30 39 16 21 1025.0 1022.6 0.0
21/07:30am 19.0 11.9 1.5 31 8.1 ESE 28 39 15 21 1024.9 1022.5 0.0
21/07:00am 18.3 12.9 1.3 32 7.8 ESE 19 22 10 12 1024.5 1022.0 0.0
21/06:30am 17.4 12.3 1.0 33 7.4 ESE 17 24 9 13 1024.4 1021.9 0.0
21/06:00am 17.4 11.9 0.6 32 7.5 ESE 19 26 10 14 1024.0 1021.5 0.0
21/05:30am 17.8 12.2 0.0 30 7.9 ESE 19 26 10 14 1023.8 1021.3 0.0
21/05:00am 17.8 13.0 0.0 30 7.9 ESE 15 20 8 11 1023.7 1021.2 0.0
21/04:30am 18.0 13.3 0.6 31 7.8 ESE 15 20 8 11 1023.6 1021.1 0.0
21/04:00am 18.2 13.9 1.3 32 7.8 ESE 13 17 7 9 1023.6 1021.1 0.0
21/03:30am 18.5 13.9 1.5 32 7.8 SE 15 20 8 11 1023.6 1021.1 0.0
21/03:00am 19.7 14.7 1.2 29 8.5 ESE 17 22 9 12 1023.6 1021.1 0.0
21/02:30am 20.1 15.2 2.0 30 8.5 SE 17 20 9 11 1023.8 1021.3 0.0
21/02:00am 21.3 15.8 0.5 25 9.6 ESE 19 26 10 14 1023.7 1021.2 0.0
21/01:30am 21.4 16.6 2.6 29 9.0 ESE 17 24 9 13 1023.9 1021.4 0.0
21/01:00am 22.0 17.0 3.6 30 9.1 ESE 19 26 10 14 1024.3 1021.8 0.0
21/12:30am 22.6 17.6 3.7 29 9.3 ESE 19 26 10 14 1024.3 1021.8 0.0
21/12:00am 23.2 18.3 4.2 29 9.5 ESE 19 28 10 15 1024.6 1022.1 0.0
 
Date/Time
CST
Temp
°C
App
Temp
°C
Dew
Point
°C
Rel
Hum
%
Delta-T
°C
Wind Press
QNH
hPa
Press
MSL
hPa
Rain since
9am
mm
Dir  Spd
km/h
Gust
km/h
Spd
kts
Gust
kts
20/11:30pm 23.9 19.0 5.3 30 9.6 ESE 20 33 11 18 1024.7 1022.2 0.0
20/11:00pm 24.3 19.3 6.6 32 9.4 ESE 22 32 12 17 1024.7 1022.2 0.0
20/10:30pm 24.8 20.0 7.4 33 9.3 ESE 22 33 12 18 1024.6 1022.1 0.0
20/10:00pm 25.4 20.4 8.0 33 9.5 ESE 24 35 13 19 1024.4 1021.9 0.0
20/09:30pm 25.8 21.4 8.8 34 9.4 ESE 22 33 12 18 1024.0 1021.5 0.0
20/09:00pm 26.2 21.9 9.5 35 9.4 ESE 22 30 12 16 1023.7 1021.2 0.0
20/08:30pm 26.7 23.5 10.0 35 9.5 ESE 17 28 9 15 1023.3 1020.8 0.0
20/08:00pm 27.1 24.0 10.3 35 9.6 ESE 17 26 9 14 1022.8 1020.3 0.0
20/07:30pm 27.7 24.1 10.4 34 9.9 SE 20 28 11 15 1022.4 1019.9 0.0
20/07:00pm 28.5 24.4 10.2 32 10.5 SE 22 28 12 15 1022.0 1019.5 0.0
20/06:30pm 29.5 24.8 10.6 31 11.0 ESE 26 35 14 19 1021.6 1019.1 0.0
20/06:00pm 30.3 25.6 10.8 30 11.4 SE 26 35 14 19 1021.2 1018.7 0.0
20/05:30pm 30.9 26.1 10.3 28 12.0 ESE 26 37 14 20 1020.9 1018.4 0.0
20/05:00pm 31.3 26.2 10.6 28 12.1 ESE 28 39 15 21 1020.5 1018.0 0.0
20/04:30pm 31.5 26.3 10.2 27 12.4 ESE 28 44 15 24 1020.4 1017.9 0.0
20/04:00pm 31.9 27.2 10.6 27 12.5 ESE 26 41 14 22 1020.4 1017.9 0.0
20/03:30pm 32.4 27.4 11.0 27 12.7 E 28 44 15 24 1020.5 1018.0 0.0
20/03:00pm 31.4 25.9 10.7 28 12.1 E 30 43 16 23 1020.8 1018.3 0.0
20/02:30pm 31.1 25.2 10.4 28 12.1 E 32 44 17 24 1021.3 1018.8 0.0
20/02:00pm 30.9 25.1 10.8 29 11.8 E 32 44 17 24 1021.7 1019.2 0.0
20/01:31pm 30.8 25.7 10.7 29 11.8 E 28 52 15 28 1022.0 1019.5 0.0
20/01:30pm 30.7 25.6 10.6 29 11.7 E 28 46 15 25 1022.0 1019.5 0.0
20/01:26pm 30.7 25.2 10.6 29 11.8 E 30 46 16 25 1022.0 1019.5 0.0
20/01:10pm 30.5 25.5 11.0 30 11.5 ESE 28 46 15 25 1022.3 1019.8 0.0
20/01:00pm 30.3 24.9 10.8 30 11.4 ESE 30 43 16 23 1022.4 1019.9 0.0
20/12:37pm 30.1 24.4 11.1 31 11.2 ESE 32 50 17 27 1022.7 1020.2 0.0
20/12:30pm 29.4 24.0 11.0 32 10.7 ESE 30 46 16 25 1022.9 1020.5 0.0
20/12:00pm 29.1 23.3 10.7 32 10.7 E 32 46 17 25 1023.3 1020.8 0.0
20/11:46am 28.1 22.2 10.3 33 10.2 ESE 32 52 17 28 1023.4 1020.9 0.0
20/11:30am 27.8 21.9 10.5 34 9.9 E 32 46 17 25 1023.8 1021.3 0.0
20/11:00am 27.8 21.9 10.5 34 10.0 E 32 48 17 26 1024.1 1021.6 0.0
20/10:30am 26.2 20.2 10.0 36 9.2 E 32 44 17 24 1024.2 1021.7 0.0
20/10:00am 26.0 19.7 9.8 36 9.2 E 33 52 18 28 1024.4 1021.9 0.0
20/09:59am 26.6 20.5 10.3 36 9.3 E 33 52 18 28 1024.3 1021.8 0.0
20/09:30am 24.4 18.3 9.6 39 8.2 ESE 32 43 17 23 1024.4 1021.9 0.0
20/09:00am 23.4 16.9 9.0 40 7.9 ESE 33 43 18 23 1024.6 1022.1 0.0
20/08:30am 22.7 16.4 9.1 42 7.4 ESE 32 41 17 22 1024.4 1021.9 0.0
20/08:00am 21.7 16.1 8.9 44 7.0 ESE 28 44 15 24 1024.3 1021.8 0.0
20/07:30am 20.9 15.0 8.9 46 6.5 ESE 30 43 16 23 1024.4 1021.9 0.0
20/07:00am 20.3 15.6 9.2 49 6.0 ESE 24 33 13 18 1024.4 1021.9 0.0
20/06:30am 19.8 14.4 9.4 51 5.6 ESE 28 37 15 20 1023.1 1020.7 0.0
20/06:00am 20.1 14.7 9.4 50 5.8 ESE 28 37 15 20 1022.9 1020.5 0.0
20/05:30am 20.5 15.5 9.7 50 5.9 ESE 26 39 14 21 1022.7 1020.2 0.0
20/05:00am 20.4 16.7 10.2 52 5.6 SE 20 28 11 15 1022.1 1019.6 0.0
20/04:30am 20.8 17.0 9.7 49 6.1 SE 20 28 11 15 1021.7 1019.2 0.0
20/04:00am 21.5 17.9 10.0 48 6.4 SE 19 28 10 15 1021.7 1019.2 0.0
20/03:30am 22.5 18.1 10.3 46 6.8 SE 24 35 13 19 1021.3 1018.8 0.0
20/03:00am 22.5 19.2 9.6 44 7.1 SE 17 24 9 13 1020.9 1018.4 0.0
20/02:30am 22.8 18.9 9.6 43 7.3 SE 20 28 11 15 1020.8 1018.3 0.0
20/02:00am 22.9 19.3 9.7 43 7.3 SSE 19 24 10 13 1021.1 1018.5 0.0
20/01:30am 23.3 19.4 9.3 41 7.7 SSE 20 28 11 15 1021.1 1018.5 0.0
20/01:00am 23.7 20.1 9.7 41 7.8 SSE 19 28 10 15 1021.2 1018.7 0.0
20/12:30am 24.0 20.9 10.3 42 7.7 SSE 17 26 9 14 1021.2 1018.7 0.0
20/12:00am 24.5 20.8 10.0 40 8.1 SSE 20 28 11 15 1021.5 1019.0 0.0
 
Date/Time
CST
Temp
°C
App
Temp
°C
Dew
Point
°C
Rel
Hum
%
Delta-T
°C
Wind Press
QNH
hPa
Press
MSL
hPa
Rain since
9am
mm
Dir  Spd
km/h
Gust
km/h
Spd
kts
Gust
kts
19/11:30pm 25.0 20.5 10.1 39 8.4 SSE 24 35 13 19 1021.6 1019.1 0.0
19/11:00pm 25.4 22.7 11.6 42 8.0 SSE 17 24 9 13 1021.3 1018.8 0.0
19/10:30pm 25.8 22.5 11.6 41 8.2 SSE 20 28 11 15 1021.1 1018.5 0.0
19/10:00pm 26.1 22.4 11.5 40 8.5 SSE 22 32 12 17 1020.8 1018.3 0.0
19/09:30pm 26.6 22.4 11.1 38 9.0 SSE 24 35 13 19 1020.4 1017.9 0.0
19/09:00pm 27.2 23.1 11.3 37 9.2 SSE 24 39 13 21 1019.9 1017.4 0.0
19/08:30pm 27.9 23.8 11.5 36 9.6 SSE 24 35 13 19 1019.4 1016.9 0.0
19/08:00pm 28.3 24.3 11.8 36 9.7 SSE 24 33 13 18 1018.8 1016.3 0.0
19/07:30pm 28.7 23.3 12.2 36 9.8 SE 32 44 17 24 1018.2 1015.7 0.0
19/07:00pm 29.5 24.4 12.0 34 10.4 SE 30 39 16 21 1017.6 1015.1 0.0
19/06:30pm 31.2 26.0 11.6 30 11.7 SSE 30 43 16 23 1016.9 1014.3 0.0
19/06:00pm 33.0 28.0 10.9 26 13.1 SE 28 43 15 23 1016.3 1013.8 0.0
19/05:30pm 33.5 28.6 11.4 26 13.2 SSE 28 39 15 21 1015.9 1013.4 0.0
19/05:00pm 33.7 29.4 10.9 25 13.6 SE 24 35 13 19 1015.7 1013.2 0.0
19/04:30pm 34.0 29.5 9.9 23 14.1 SE 24 39 13 21 1015.3 1012.7 0.0
19/04:00pm 34.3 30.4 9.5 22 14.5 ESE 20 28 11 15 1015.4 1012.8 0.0
19/03:30pm 34.1 29.8 9.4 22 14.4 ESE 22 37 12 20 1015.5 1012.9 0.0
19/03:00pm 34.3 28.7 8.8 21 14.7 SE 28 41 15 22 1015.7 1013.2 0.0
19/02:30pm 35.0 30.9 8.7 20 15.2 ESE 20 33 11 18 1015.9 1013.4 0.0
19/02:00pm 34.4 30.0 7.5 19 15.2 ESE 20 39 11 21 1016.4 1013.9 0.0
19/01:30pm 34.5 30.3 7.5 19 15.3 E 19 33 10 18 1016.6 1014.1 0.0
19/01:00pm 34.5 29.9 8.3 20 15.0 E 22 37 12 20 1016.9 1014.3 0.0
19/12:30pm 33.7 28.6 7.6 20 14.7 E 24 37 13 20 1017.3 1014.7 0.0
19/12:00pm 33.2 28.7 8.6 22 14.1 E 22 35 12 19 1017.4 1014.8 0.0
19/11:30am 32.0 26.8 8.9 24 13.2 ESE 26 35 14 19 1017.6 1015.1 0.0
19/11:00am 31.7 27.4 9.3 25 12.9 ESE 22 35 12 19 1017.8 1015.3 0.0
19/10:30am 30.5 25.8 9.4 27 12.1 SE 24 35 13 19 1017.8 1015.3 0.0
19/10:00am 29.7 24.5 10.3 30 11.2 SE 28 37 15 20 1017.8 1015.3 0.0
19/09:30am 28.8 23.4 9.5 30 11.0 SE 28 41 15 22 1017.7 1015.2 0.0
19/09:00am 27.6 21.5 9.9 33 10.1 SE 32 41 17 22 1017.5 1015.0 0.0
19/08:30am 26.4 21.2 10.1 36 9.3 SE 28 43 15 23 1017.4 1014.8 0.0
19/08:00am 25.4 21.0 10.4 39 8.5 SSE 24 33 13 18 1017.3 1014.7 0.0
19/07:30am 24.5 19.7 10.4 41 8.0 SSE 26 41 14 22 1017.1 1014.5 0.0
19/07:00am 23.6 20.0 10.6 44 7.4 S 20 32 11 17 1016.6 1014.1 0.0

Other Formats:

Comma delimited format used in spreadsheet applications
http://www.bom.gov.au/fwo/IDD60801/IDD60801.94462.axf

JavaScript Object Notation format (JSON) in row-major order
http://www.bom.gov.au/fwo/IDD60801/IDD60801.94462.json